Time;durP1;ratioP1;P1;durP2;ratioP2;P2;SDS_P1;SDS_P2;PMS_P1;PMS_P2;Temp;Humidity;BMP_temperature;BMP_pressure;BME280_temperature;BME280_humidity;BME280_pressure;Samples;Min_cycle;Max_cycle;Signal;HPM_P1;HPM_P2
2022/12/23 00:00:35;;;;;;;2.50;2.30;;;7.80;97.30;;;;;;4963578;28;20418;-88
2022/12/23 00:03:01;;;;;;;2.00;1.67;;;7.90;97.30;;;;;;4969410;28;20192;-89
2022/12/23 00:05:26;;;;;;;1.77;1.67;;;7.90;97.30;;;;;;4961169;28;20205;-88
2022/12/23 00:07:51;;;;;;;1.87;1.77;;;7.90;97.30;;;;;;4970257;28;20205;-88
2022/12/23 00:10:17;;;;;;;2.47;2.23;;;7.90;97.30;;;;;;4976070;28;20203;-88
2022/12/23 00:15:26;;;;;;;1.97;1.87;;;7.90;97.30;;;;;;4978188;28;20193;-89
2022/12/23 00:20:19;;;;;;;3.57;2.47;;;7.90;97.30;;;;;;5029379;23;20245;-85
2022/12/23 00:25:40;;;;;;;1.07;0.97;;;7.90;97.30;;;;;;5014775;28;20647;-80
2022/12/23 00:28:10;;;;;;;2.03;1.73;;;7.90;97.30;;;;;;5012266;28;20854;-83
2022/12/23 00:30:37;;;;;;;1.20;1.10;;;7.90;97.30;;;;;;4995872;28;20421;-85
2022/12/23 00:33:03;;;;;;;1.47;1.40;;;7.90;97.30;;;;;;4987253;28;20417;-83
2022/12/23 00:35:30;;;;;;;3.43;2.53;;;8.00;97.30;;;;;;4995611;28;20528;-86
2022/12/23 00:37:55;;;;;;;1.87;1.77;;;8.00;97.30;;;;;;4986317;28;20174;-83
2022/12/23 00:43:05;;;;;;;2.00;1.50;;;8.00;97.30;;;;;;4993406;28;20228;-86
2022/12/23 00:45:31;;;;;;;1.80;1.77;;;8.00;97.30;;;;;;4994807;28;20412;-83
2022/12/23 00:50:40;;;;;;;3.90;2.27;;;8.10;97.30;;;;;;5008172;28;20264;-80
2022/12/23 00:53:05;;;;;;;4.23;1.97;;;8.10;97.30;;;;;;4982172;28;20930;-87
2022/12/23 00:55:31;;;;;;;1.50;1.40;;;8.20;97.30;;;;;;4986058;28;20208;-85
2022/12/23 00:57:57;;;;;;;1.30;1.20;;;8.20;97.30;;;;;;4976695;28;20178;-85
2022/12/23 01:05:35;;;;;;;1.37;1.20;;;8.20;97.30;;;;;;4995695;28;20197;-83
2022/12/23 01:05:58;;;;;;;2.63;1.40;;;8.20;97.30;;;;;;4991465;28;20440;-82
2022/12/23 01:08:25;;;;;;;1.10;0.90;;;8.30;97.30;;;;;;4978383;28;20695;-84
2022/12/23 01:10:50;;;;;;;2.00;1.67;;;8.30;97.30;;;;;;4995853;28;20422;-85
2022/12/23 01:13:16;;;;;;;1.10;1.00;;;8.30;97.30;;;;;;4977189;28;20928;-81
2022/12/23 01:15:41;;;;;;;1.30;1.20;;;8.30;97.30;;;;;;4978972;28;20178;-87
2022/12/23 01:18:07;;;;;;;2.13;1.80;;;8.40;97.30;;;;;;4981072;28;20187;-89
2022/12/23 01:20:32;;;;;;;4.27;1.50;;;8.40;97.30;;;;;;4980611;28;20230;-86
2022/12/23 01:22:58;;;;;;;2.97;1.63;;;8.50;97.30;;;;;;4996750;28;20178;-84
2022/12/23 01:25:23;;;;;;;1.40;1.37;;;8.50;97.30;;;;;;4977254;28;20542;-83
2022/12/23 01:27:49;;;;;;;0.87;0.77;;;8.50;97.30;;;;;;4979976;28;20358;-83
2022/12/23 01:30:14;;;;;;;6.47;2.00;;;8.50;97.30;;;;;;4999624;28;20209;-83
2022/12/23 01:32:40;;;;;;;2.03;1.40;;;8.60;97.30;;;;;;5016489;28;20177;-85
2022/12/23 01:35:05;;;;;;;0.90;0.80;;;8.60;97.30;;;;;;4996538;28;20205;-83
2022/12/23 01:37:31;;;;;;;1.00;0.90;;;8.60;97.30;;;;;;4982271;28;20178;-83
2022/12/23 01:39:56;;;;;;;1.10;1.00;;;8.70;97.30;;;;;;4993417;28;20213;-85
2022/12/23 01:45:23;;;;;;;0.87;0.77;;;8.70;97.30;;;;;;4993515;28;20193;-84
2022/12/23 01:47:52;;;;;;;1.10;1.00;;;8.70;97.30;;;;;;4990054;28;20530;-85
2022/12/23 01:50:35;;;;;;;0.97;0.87;;;8.70;97.30;;;;;;4979620;28;20485;-86
2022/12/23 01:53:15;;;;;;;5.60;1.90;;;8.70;97.30;;;;;;4977225;28;20437;-83
2022/12/23 01:55:47;;;;;;;1.10;1.00;;;8.70;97.30;;;;;;4970036;28;20472;-85
2022/12/23 01:58:16;;;;;;;1.00;0.90;;;8.70;97.30;;;;;;4980337;28;20496;-82
2022/12/23 02:03:42;;;;;;;1.07;1.00;;;8.70;97.30;;;;;;4997558;28;20987;-85
2022/12/23 02:12:02;;;;;;;1.03;0.93;;;8.80;97.30;;;;;;5002254;28;20427;-86
2022/12/23 02:17:59;;;;;;;1.27;1.17;;;8.80;97.30;;;;;;4994473;28;20415;-85
2022/12/23 02:20:41;;;;;;;1.67;1.10;;;8.80;97.30;;;;;;4966787;28;20460;-85
2022/12/23 02:23:31;;;;;;;1.27;1.23;;;8.80;97.30;;;;;;4977745;28;20519;-86
2022/12/23 02:26:30;;;;;;;7.20;2.27;;;8.80;97.30;;;;;;5001007;28;20472;-85
2022/12/23 02:29:24;;;;;;;2.03;1.90;;;8.80;97.30;;;;;;4966950;28;20460;-86
2022/12/23 02:32:01;;;;;;;2.77;2.20;;;8.80;97.30;;;;;;4965526;28;20979;-87
2022/12/23 02:34:46;;;;;;;1.87;1.80;;;8.90;97.30;;;;;;4989459;28;20427;-86
2022/12/23 02:37:24;;;;;;;1.13;1.03;;;8.90;97.30;;;;;;4977001;28;20457;-85
2022/12/23 02:40:01;;;;;;;0.90;0.80;;;8.90;97.30;;;;;;4984261;28;20998;-86
2022/12/23 02:42:35;;;;;;;1.03;0.93;;;8.90;97.30;;;;;;4978073;28;20436;-85
2022/12/23 02:45:22;;;;;;;1.30;1.20;;;8.90;97.30;;;;;;4979654;28;20435;-87
2022/12/23 02:47:53;;;;;;;1.10;1.00;;;8.90;97.30;;;;;;4984386;28;20539;-85
2022/12/23 02:50:25;;;;;;;1.20;1.10;;;8.90;97.30;;;;;;4980558;28;20501;-87
2022/12/23 02:52:55;;;;;;;15.77;3.27;;;8.90;97.30;;;;;;4981924;28;20573;-85
2022/12/23 02:55:26;;;;;;;0.90;0.80;;;8.90;97.30;;;;;;4977126;28;20405;-86
2022/12/23 02:57:55;;;;;;;0.90;0.80;;;8.90;97.30;;;;;;4977867;28;20425;-85
2022/12/23 03:00:21;;;;;;;1.13;1.10;;;8.90;97.30;;;;;;4984407;28;20562;-85
2022/12/23 03:02:47;;;;;;;1.53;1.43;;;8.90;97.30;;;;;;4992972;28;20417;-83
2022/12/23 03:05:33;;;;;;;1.00;0.90;;;8.80;97.30;;;;;;4976230;28;20769;-84
2022/12/23 03:08:02;;;;;;;0.90;0.80;;;8.80;97.30;;;;;;4971570;28;20198;-85
2022/12/23 03:11:00;;;;;;;1.17;1.07;;;8.90;97.30;;;;;;4971497;28;20421;-86
2022/12/23 03:13:47;;;;;;;1.63;1.53;;;8.80;97.30;;;;;;4986276;28;20413;-85
2022/12/23 03:16:23;;;;;;;0.90;0.80;;;8.80;97.30;;;;;;4971078;28;20425;-82
2022/12/23 03:19:02;;;;;;;2.00;1.13;;;8.80;97.30;;;;;;4970283;28;20463;-83
2022/12/23 03:21:40;;;;;;;1.27;1.17;;;8.80;97.30;;;;;;4967913;28;20429;-85
2022/12/23 03:24:26;;;;;;;2.37;2.17;;;8.80;97.30;;;;;;4978899;28;20828;-83
2022/12/23 03:27:10;;;;;;;2.30;1.40;;;8.80;97.30;;;;;;4986116;28;20420;-83
2022/12/23 03:29:54;;;;;;;0.93;0.83;;;8.80;97.30;;;;;;4990458;28;20463;-83
2022/12/23 03:32:23;;;;;;;0.93;0.83;;;8.80;97.30;;;;;;4981746;28;20443;-86
2022/12/23 03:34:52;;;;;;;1.73;1.00;;;8.80;97.30;;;;;;4985652;28;21012;-86
2022/12/23 03:37:21;;;;;;;1.17;1.10;;;8.80;97.30;;;;;;4992046;28;20435;-86
2022/12/23 03:40:07;;;;;;;1.20;1.10;;;8.80;97.30;;;;;;4972603;28;20445;-86
2022/12/23 03:42:44;;;;;;;1.20;1.10;;;8.80;97.30;;;;;;4981195;28;20412;-87
2022/12/23 03:45:37;;;;;;;1.00;0.90;;;8.80;97.30;;;;;;4991522;28;20426;-83
2022/12/23 03:48:30;;;;;;;13.10;0.97;;;8.80;97.30;;;;;;4987792;28;20452;-85
2022/12/23 03:51:01;;;;;;;15.23;1.70;;;8.80;97.30;;;;;;4982344;28;20421;-83
2022/12/23 03:53:31;;;;;;;1.03;0.93;;;8.80;97.30;;;;;;4990362;28;20412;-86
2022/12/23 03:56:06;;;;;;;0.93;0.90;;;8.80;97.30;;;;;;5008928;28;20499;-86
2022/12/23 03:58:46;;;;;;;10.60;1.73;;;8.80;97.30;;;;;;4988538;28;20462;-87
2022/12/23 04:01:36;;;;;;;0.90;0.80;;;8.80;97.30;;;;;;4983724;28;20433;-86
2022/12/23 04:04:19;;;;;;;0.90;0.80;;;8.80;97.30;;;;;;4989100;28;20424;-86
2022/12/23 04:07:02;;;;;;;1.00;0.90;;;8.80;97.30;;;;;;4991137;28;20447;-86
2022/12/23 04:09:28;;;;;;;1.00;0.90;;;8.80;97.30;;;;;;4973987;28;21003;-86
2022/12/23 04:11:54;;;;;;;3.57;1.37;;;8.80;97.30;;;;;;4982416;28;20416;-86
2022/12/23 04:14:21;;;;;;;0.90;0.80;;;8.80;97.30;;;;;;4976364;28;20429;-84
2022/12/23 04:16:49;;;;;;;0.93;0.83;;;8.80;97.30;;;;;;4973898;28;20512;-84
2022/12/23 04:19:15;;;;;;;1.27;1.00;;;8.80;97.30;;;;;;4976495;28;20468;-84
2022/12/23 04:21:40;;;;;;;1.20;1.10;;;8.80;97.30;;;;;;4982711;28;20668;-83
2022/12/23 04:24:06;;;;;;;0.90;0.80;;;8.80;97.30;;;;;;4970844;28;20729;-83
2022/12/23 04:26:31;;;;;;;1.00;0.90;;;8.80;97.30;;;;;;4964056;28;20204;-86
2022/12/23 04:28:57;;;;;;;0.90;0.80;;;8.80;97.30;;;;;;4986158;28;20210;-83
2022/12/23 04:31:22;;;;;;;2.70;1.10;;;8.80;97.30;;;;;;4983170;28;20538;-83
2022/12/23 04:33:48;;;;;;;1.57;1.30;;;8.80;97.30;;;;;;4994886;28;20193;-86
2022/12/23 04:36:13;;;;;;;1.10;1.00;;;8.80;97.30;;;;;;4972730;28;20265;-86
2022/12/23 04:38:39;;;;;;;1.10;1.00;;;8.80;97.30;;;;;;4977760;28;20241;-86
2022/12/23 04:41:04;;;;;;;0.80;0.70;;;8.80;97.30;;;;;;4982508;28;20660;-86
2022/12/23 04:43:30;;;;;;;1.57;1.07;;;8.80;97.30;;;;;;4994839;28;20199;-86
2022/12/23 04:45:55;;;;;;;1.87;0.90;;;8.80;97.30;;;;;;4992775;28;20173;-85
2022/12/23 04:48:21;;;;;;;1.00;1.00;;;8.80;97.30;;;;;;4991599;28;20209;-86
2022/12/23 04:50:46;;;;;;;0.90;0.80;;;8.80;97.30;;;;;;4993774;28;20173;-86
2022/12/23 04:53:12;;;;;;;0.90;0.80;;;8.80;97.30;;;;;;4983658;28;20203;-86
2022/12/23 04:55:37;;;;;;;0.90;0.83;;;8.80;97.30;;;;;;5005313;28;20217;-87
2022/12/23 04:58:03;;;;;;;1.20;1.10;;;8.80;97.30;;;;;;5008765;28;20217;-86
2022/12/23 05:00:28;;;;;;;1.07;0.97;;;8.80;97.30;;;;;;4996525;28;20204;-86
2022/12/23 05:02:54;;;;;;;1.70;1.40;;;8.80;97.30;;;;;;4982359;28;20690;-87
2022/12/23 05:05:19;;;;;;;0.90;0.80;;;8.80;97.30;;;;;;4977156;28;20173;-86
2022/12/23 05:07:47;;;;;;;1.00;0.90;;;8.80;97.30;;;;;;4989891;28;20532;-86
2022/12/23 05:10:12;;;;;;;1.00;0.90;;;8.80;97.30;;;;;;4993908;28;20194;-86
2022/12/23 05:12:38;;;;;;;3.00;1.10;;;8.90;97.30;;;;;;4988194;28;20435;-87
2022/12/23 05:15:04;;;;;;;1.10;1.00;;;8.90;97.30;;;;;;4987469;28;20348;-86
2022/12/23 05:17:29;;;;;;;1.00;0.90;;;8.90;97.30;;;;;;4976393;28;20560;-84
2022/12/23 05:19:54;;;;;;;0.97;0.87;;;8.90;97.30;;;;;;4995784;28;20229;-86
2022/12/23 05:22:20;;;;;;;7.33;0.97;;;8.90;97.30;;;;;;4977579;28;20244;-86
2022/12/23 05:24:46;;;;;;;0.97;0.87;;;8.90;97.30;;;;;;4984223;28;20177;-86
2022/12/23 05:27:11;;;;;;;2.27;2.07;;;8.90;97.30;;;;;;4980037;28;20178;-86
2022/12/23 05:29:37;;;;;;;0.93;0.83;;;8.90;97.30;;;;;;4989041;28;20209;-86
2022/12/23 05:32:02;;;;;;;1.10;1.00;;;8.90;97.30;;;;;;4982548;28;20171;-86
2022/12/23 05:34:28;;;;;;;1.00;0.90;;;8.90;97.30;;;;;;4983099;28;20260;-87
2022/12/23 05:36:53;;;;;;;1.00;0.90;;;8.90;97.30;;;;;;4986571;28;20175;-86
2022/12/23 05:39:19;;;;;;;1.10;1.00;;;8.90;97.30;;;;;;4984854;28;20414;-86
2022/12/23 05:41:44;;;;;;;1.50;1.40;;;8.90;97.30;;;;;;4987008;28;20193;-86
2022/12/23 05:44:10;;;;;;;0.93;0.87;;;8.90;97.30;;;;;;4977578;28;20193;-85
2022/12/23 05:46:35;;;;;;;1.30;1.20;;;8.90;97.30;;;;;;4976677;28;20209;-86
2022/12/23 05:49:01;;;;;;;0.77;0.77;;;8.90;97.30;;;;;;4977161;28;20305;-85
2022/12/23 05:51:26;;;;;;;1.00;0.90;;;9.00;97.30;;;;;;4977481;28;20193;-86
2022/12/23 05:53:52;;;;;;;0.90;0.80;;;9.00;97.30;;;;;;4975962;28;20652;-86
2022/12/23 05:56:17;;;;;;;1.10;1.00;;;9.00;97.30;;;;;;4973896;28;20177;-86
2022/12/23 05:58:43;;;;;;;0.87;0.77;;;9.00;97.30;;;;;;4965005;28;20206;-85
2022/12/23 06:01:09;;;;;;;0.90;0.80;;;9.00;97.30;;;;;;4965985;28;20538;-85
2022/12/23 06:03:35;;;;;;;0.90;0.80;;;9.00;97.30;;;;;;4975800;28;20185;-85
2022/12/23 06:06:00;;;;;;;1.03;0.93;;;9.10;97.30;;;;;;4976798;28;20414;-85
2022/12/23 06:08:26;;;;;;;1.27;1.17;;;9.10;97.30;;;;;;4994277;28;20217;-86
2022/12/23 06:10:51;;;;;;;1.00;1.00;;;9.10;97.30;;;;;;4975081;28;20174;-85
2022/12/23 06:13:17;;;;;;;3.13;1.70;;;9.10;97.30;;;;;;4976662;28;20181;-83
2022/12/23 06:15:42;;;;;;;1.20;1.10;;;9.20;97.30;;;;;;5009268;28;20197;-83
2022/12/23 06:18:08;;;;;;;0.87;0.77;;;9.20;97.30;;;;;;4989991;28;20206;-85
2022/12/23 06:20:33;;;;;;;1.00;0.90;;;9.20;97.30;;;;;;4988449;28;20228;-86
2022/12/23 06:22:59;;;;;;;0.90;0.80;;;9.20;97.30;;;;;;4995447;28;20647;-86
2022/12/23 06:25:24;;;;;;;1.00;0.90;;;9.20;97.30;;;;;;5003134;23;20610;-88
2022/12/23 06:27:50;;;;;;;0.80;0.70;;;9.20;97.30;;;;;;4974837;28;20210;-88
2022/12/23 06:30:15;;;;;;;6.43;0.90;;;9.20;97.30;;;;;;4974360;28;20182;-89
2022/12/23 06:32:41;;;;;;;1.00;0.90;;;9.10;97.30;;;;;;4982563;28;20166;-88
2022/12/23 06:35:07;;;;;;;1.10;1.00;;;9.10;97.30;;;;;;4965870;28;20205;-89
2022/12/23 06:37:33;;;;;;;0.90;0.80;;;9.20;97.30;;;;;;4974453;28;20186;-89
2022/12/23 06:39:58;;;;;;;0.93;0.83;;;9.20;97.30;;;;;;4974724;28;20956;-89
2022/12/23 06:42:24;;;;;;;1.60;1.17;;;9.20;97.30;;;;;;4969181;28;20171;-89
2022/12/23 06:44:50;;;;;;;0.80;0.70;;;9.20;97.30;;;;;;4968263;28;20236;-89
2022/12/23 06:47:15;;;;;;;0.80;0.70;;;9.20;97.30;;;;;;4968182;28;20181;-89
2022/12/23 06:49:41;;;;;;;1.83;1.73;;;9.20;97.30;;;;;;4959502;28;20217;-89
2022/12/23 06:52:06;;;;;;;1.10;1.00;;;9.20;97.30;;;;;;4965129;28;20333;-89
2022/12/23 06:54:32;;;;;;;1.23;1.13;;;9.20;97.30;;;;;;4974222;28;20274;-88
2022/12/23 06:56:57;;;;;;;1.40;1.23;;;9.20;97.30;;;;;;4974114;28;20726;-89
2022/12/23 06:59:23;;;;;;;1.63;1.53;;;9.30;97.30;;;;;;4983592;28;20190;-88
2022/12/23 07:01:48;;;;;;;1.00;0.90;;;9.30;97.30;;;;;;4962572;28;20201;-90
2022/12/23 07:04:13;;;;;;;0.80;0.70;;;9.30;97.30;;;;;;4963149;28;20182;-89
2022/12/23 07:06:39;;;;;;;0.90;0.80;;;9.30;97.30;;;;;;4962137;28;20563;-88
2022/12/23 07:09:06;;;;;;;0.87;0.77;;;9.30;97.30;;;;;;4972251;28;20240;-89
2022/12/23 07:11:31;;;;;;;1.07;0.97;;;9.30;97.30;;;;;;4965858;28;20741;-89
2022/12/23 07:13:58;;;;;;;0.90;0.80;;;9.30;97.30;;;;;;4970949;28;20516;-88
2022/12/23 07:16:23;;;;;;;3.03;0.90;;;9.30;97.30;;;;;;4984595;28;20625;-89
2022/12/23 07:18:49;;;;;;;0.90;0.80;;;9.30;97.30;;;;;;4969836;28;20480;-88
2022/12/23 07:21:14;;;;;;;1.10;1.00;;;9.30;97.30;;;;;;4973897;28;20528;-88
2022/12/23 07:23:40;;;;;;;0.90;0.80;;;9.30;97.30;;;;;;4969704;28;20187;-88
2022/12/23 07:26:05;;;;;;;1.27;1.17;;;9.30;97.30;;;;;;4966538;28;20226;-89
2022/12/23 07:28:31;;;;;;;1.60;1.50;;;9.30;97.30;;;;;;4972928;28;20210;-88
2022/12/23 07:30:56;;;;;;;1.20;0.93;;;9.30;97.30;;;;;;4973649;28;20186;-88
2022/12/23 07:33:48;;;;;;;1.17;1.17;;;9.40;97.30;;;;;;4967344;28;20558;-89
2022/12/23 07:36:19;;;;;;;1.33;1.23;;;9.40;97.30;;;;;;4997307;23;20229;-87
2022/12/23 07:38:50;;;;;;;1.47;1.37;;;9.40;97.30;;;;;;4992640;28;20416;-88
2022/12/23 07:41:15;;;;;;;7.40;1.20;;;9.40;97.30;;;;;;4986272;28;21049;-88
2022/12/23 07:43:41;;;;;;;1.50;1.40;;;9.40;97.30;;;;;;4988287;28;20448;-88
2022/12/23 07:46:08;;;;;;;2.30;1.77;;;9.40;97.30;;;;;;4979628;28;20202;-88
2022/12/23 07:48:36;;;;;;;1.17;1.07;;;9.40;97.30;;;;;;4987807;28;20300;-88
2022/12/23 07:51:02;;;;;;;1.27;1.17;;;9.40;97.30;;;;;;4974531;28;20417;-88
2022/12/23 07:53:28;;;;;;;1.47;1.00;;;9.40;97.30;;;;;;4984344;28;20425;-88
2022/12/23 07:55:53;;;;;;;1.30;1.27;;;9.40;97.30;;;;;;4980594;28;20448;-88
2022/12/23 07:58:19;;;;;;;1.03;0.93;;;9.40;97.30;;;;;;4979099;28;20572;-88
2022/12/23 08:00:44;;;;;;;1.13;1.00;;;9.40;97.30;;;;;;5004900;28;20617;-88
2022/12/23 08:03:10;;;;;;;1.00;0.90;;;9.50;97.30;;;;;;4978900;28;20216;-89
2022/12/23 08:05:36;;;;;;;1.10;1.00;;;9.50;97.30;;;;;;4986184;28;20296;-89
2022/12/23 08:08:01;;;;;;;0.83;0.73;;;9.50;97.30;;;;;;4998717;28;20525;-88
2022/12/23 08:10:27;;;;;;;2.27;1.30;;;9.50;97.30;;;;;;4986546;28;20181;-88
2022/12/23 08:12:53;;;;;;;1.00;0.90;;;9.50;97.30;;;;;;4983218;28;20177;-89
2022/12/23 08:15:18;;;;;;;1.00;0.90;;;9.50;97.30;;;;;;4979761;28;20198;-90
2022/12/23 08:17:43;;;;;;;0.87;0.77;;;9.50;97.30;;;;;;4991786;28;20643;-88
2022/12/23 08:20:09;;;;;;;0.93;0.83;;;9.50;97.30;;;;;;4984073;28;20177;-89
2022/12/23 08:22:35;;;;;;;1.00;0.90;;;9.50;97.30;;;;;;4992530;28;20214;-88
2022/12/23 08:25:01;;;;;;;1.30;1.20;;;9.50;97.30;;;;;;4979004;28;20449;-89
2022/12/23 08:27:26;;;;;;;0.90;0.80;;;9.60;97.30;;;;;;4986344;28;20181;-89
2022/12/23 08:29:52;;;;;;;0.80;0.70;;;9.60;97.30;;;;;;4977231;28;20274;-89
2022/12/23 08:32:17;;;;;;;1.30;1.20;;;9.60;97.30;;;;;;4982472;28;20209;-89
2022/12/23 08:34:43;;;;;;;0.97;0.93;;;9.60;97.30;;;;;;4979065;28;20208;-89
2022/12/23 08:37:08;;;;;;;3.27;1.20;;;9.60;97.30;;;;;;4991709;28;20217;-88
2022/12/23 08:39:34;;;;;;;1.07;0.97;;;9.60;97.30;;;;;;4988306;28;20243;-89
2022/12/23 08:42:00;;;;;;;1.03;0.93;;;9.60;97.30;;;;;;4982040;28;20185;-89
2022/12/23 08:44:26;;;;;;;1.00;0.90;;;9.70;97.30;;;;;;4979234;28;20281;-89
2022/12/23 08:46:55;;;;;;;1.47;1.37;;;9.70;97.30;;;;;;5002825;28;20253;-88
2022/12/23 08:49:21;;;;;;;0.90;0.80;;;9.70;97.30;;;;;;4989108;28;20507;-90
2022/12/23 08:51:48;;;;;;;0.90;0.80;;;9.70;97.30;;;;;;5006354;28;20477;-89
2022/12/23 08:54:13;;;;;;;1.20;1.10;;;9.70;97.30;;;;;;4992170;28;20201;-90
2022/12/23 08:56:41;;;;;;;1.57;0.90;;;9.80;97.30;;;;;;5003317;28;20425;-89
2022/12/23 08:59:14;;;;;;;1.43;1.33;;;9.80;97.30;;;;;;4994586;28;20200;-88
2022/12/23 09:01:40;;;;;;;0.90;0.80;;;9.80;97.30;;;;;;4988162;28;20693;-88
2022/12/23 09:04:06;;;;;;;1.13;1.03;;;9.90;97.30;;;;;;4988625;28;21095;-88
2022/12/23 09:06:37;;;;;;;1.10;1.00;;;9.90;97.30;;;;;;4983142;28;20209;-86
2022/12/23 09:09:04;;;;;;;1.10;1.00;;;9.90;97.30;;;;;;4976822;28;20854;-89
2022/12/23 09:11:30;;;;;;;1.03;0.93;;;9.90;97.30;;;;;;4981556;28;20416;-89
2022/12/23 09:13:57;;;;;;;0.80;0.70;;;9.90;97.30;;;;;;4992116;28;20423;-87
2022/12/23 09:16:26;;;;;;;1.07;0.97;;;10.00;97.30;;;;;;4985284;28;20200;-88
2022/12/23 09:18:54;;;;;;;0.87;0.83;;;10.00;97.30;;;;;;4985337;28;20425;-88
2022/12/23 09:21:21;;;;;;;1.20;1.00;;;10.00;97.30;;;;;;5001622;28;20491;-88
2022/12/23 09:23:47;;;;;;;5.30;0.93;;;10.00;97.30;;;;;;4987301;28;20427;-88
2022/12/23 09:26:27;;;;;;;0.80;0.70;;;10.00;97.30;;;;;;4981210;28;20451;-87
2022/12/23 09:28:57;;;;;;;1.23;1.20;;;10.10;97.30;;;;;;4986133;28;20518;-88
2022/12/23 09:31:28;;;;;;;0.93;0.83;;;10.10;97.30;;;;;;4991429;28;20415;-88
2022/12/23 09:33:57;;;;;;;0.97;0.90;;;10.10;97.30;;;;;;4980520;28;20428;-89
2022/12/23 09:36:28;;;;;;;0.80;0.80;;;10.20;97.30;;;;;;4971734;28;20623;-89
2022/12/23 09:38:59;;;;;;;0.93;0.83;;;10.30;97.30;;;;;;4987499;28;20428;-88
2022/12/23 09:42:00;;;;;;;1.93;1.47;;;10.40;97.30;;;;;;4990748;28;21174;-89
2022/12/23 09:44:46;;;;;;;7.40;1.73;;;10.40;97.30;;;;;;4985930;28;20426;-88
2022/12/23 09:47:21;;;;;;;1.10;1.00;;;10.40;97.30;;;;;;4995322;28;20922;-88
2022/12/23 09:49:52;;;;;;;1.03;0.93;;;10.40;97.30;;;;;;4982068;28;20467;-88
2022/12/23 09:52:26;;;;;;;1.10;1.00;;;10.40;97.30;;;;;;4982562;28;20970;-89
2022/12/23 09:54:53;;;;;;;1.53;1.43;;;10.40;97.30;;;;;;4978107;28;20452;-89
2022/12/23 09:57:21;;;;;;;1.00;0.90;;;10.40;97.30;;;;;;4979744;28;20420;-89
2022/12/23 09:59:58;;;;;;;25.33;1.97;;;10.50;97.30;;;;;;4985609;28;21041;-88
2022/12/23 10:02:31;;;;;;;1.10;1.00;;;10.50;97.30;;;;;;4988403;28;20440;-86
2022/12/23 10:05:24;;;;;;;6.03;1.43;;;10.60;97.30;;;;;;4988494;28;20448;-87
2022/12/23 10:08:00;;;;;;;1.73;1.43;;;10.60;97.30;;;;;;4981835;28;21003;-86
2022/12/23 10:10:33;;;;;;;1.33;1.23;;;10.60;97.30;;;;;;4991837;28;20845;-88
2022/12/23 10:13:02;;;;;;;1.00;0.90;;;10.70;97.30;;;;;;4994996;28;20412;-86
2022/12/23 10:15:40;;;;;;;1.40;1.30;;;10.60;97.30;;;;;;4989796;28;20831;-89
2022/12/23 10:18:16;;;;;;;1.17;1.07;;;10.60;97.30;;;;;;4994839;28;20424;-89
2022/12/23 10:20:52;;;;;;;0.90;0.80;;;10.60;97.30;;;;;;4975586;28;20443;-89
2022/12/23 10:23:31;;;;;;;1.10;1.10;;;10.60;97.30;;;;;;4989263;28;20820;-89
2022/12/23 10:25:57;;;;;;;1.47;1.40;;;10.60;97.30;;;;;;4982586;28;20467;-89
2022/12/23 10:28:23;;;;;;;2.23;1.60;;;10.60;97.30;;;;;;4990677;28;20990;-89
2022/12/23 10:31:01;;;;;;;1.10;1.00;;;10.50;97.30;;;;;;4993907;28;20243;-89
2022/12/23 10:33:38;;;;;;;1.60;1.50;;;10.50;97.30;;;;;;4993558;28;20420;-89
2022/12/23 10:36:21;;;;;;;1.53;1.40;;;10.50;97.30;;;;;;4996011;28;20962;-89
2022/12/23 10:38:46;;;;;;;2.80;2.50;;;10.60;97.30;;;;;;4979915;28;20447;-88
2022/12/23 10:41:17;;;;;;;1.60;1.50;;;10.60;97.30;;;;;;4990685;28;20429;-88
2022/12/23 10:43:57;;;;;;;3.03;1.63;;;10.60;97.30;;;;;;4988282;28;20194;-89
2022/12/23 10:46:59;;;;;;;2.20;0.90;;;10.60;97.30;;;;;;4991114;28;20448;-88
2022/12/23 10:49:57;;;;;;;0.90;0.80;;;10.60;97.30;;;;;;4968920;28;20483;-88
2022/12/23 10:52:32;;;;;;;10.60;2.53;;;10.70;97.30;;;;;;4983931;28;20594;-89
2022/12/23 10:54:58;;;;;;;1.27;1.17;;;10.70;97.30;;;;;;4990788;28;20435;-88
2022/12/23 10:57:24;;;;;;;1.40;1.30;;;10.70;97.30;;;;;;4982292;28;20787;-89
2022/12/23 10:59:50;;;;;;;0.90;0.80;;;10.70;97.30;;;;;;4974763;28;20563;-88
2022/12/23 11:02:53;;;;;;;1.33;1.20;;;10.80;97.30;;;;;;4975270;28;20499;-87
2022/12/23 11:05:25;;;;;;;1.43;1.33;;;10.80;97.30;;;;;;4989110;28;20208;-86
2022/12/23 11:07:51;;;;;;;1.07;0.97;;;10.90;97.30;;;;;;4995928;28;20838;-89
2022/12/23 11:10:22;;;;;;;0.90;0.80;;;11.00;97.30;;;;;;4974896;28;20467;-88
2022/12/23 11:12:51;;;;;;;1.90;1.63;;;11.00;97.30;;;;;;5003303;28;20181;-88
2022/12/23 11:15:35;;;;;;;2.30;1.13;;;11.10;97.30;;;;;;4992334;28;20532;-88
2022/12/23 11:18:15;;;;;;;3.13;0.90;;;11.10;97.30;;;;;;4990451;28;20442;-89
2022/12/23 11:20:43;;;;;;;1.03;0.93;;;11.10;97.30;;;;;;5000711;28;20514;-88
2022/12/23 11:23:26;;;;;;;1.43;1.20;;;11.10;97.30;;;;;;4985987;28;20492;-89
2022/12/23 11:26:11;;;;;;;1.03;1.03;;;11.10;97.30;;;;;;4994225;28;20454;-88
2022/12/23 11:28:46;;;;;;;1.20;1.10;;;11.10;97.30;;;;;;4997943;28;20483;-88
2022/12/23 11:31:13;;;;;;;1.70;1.60;;;11.10;97.30;;;;;;4977037;28;20424;-89
2022/12/23 11:33:54;;;;;;;0.90;0.80;;;11.10;97.30;;;;;;4983790;28;20502;-88
2022/12/23 11:36:26;;;;;;;2.03;1.30;;;11.10;97.30;;;;;;4989265;28;20460;-88
2022/12/23 11:39:17;;;;;;;2.83;2.03;;;11.00;97.30;;;;;;4999445;28;20441;-89
2022/12/23 11:41:46;;;;;;;1.57;1.20;;;11.00;97.30;;;;;;4973955;28;20479;-88
2022/12/23 11:44:24;;;;;;;1.60;1.50;;;11.00;97.30;;;;;;4981313;28;20420;-87
2022/12/23 11:46:50;;;;;;;1.23;1.13;;;11.00;97.30;;;;;;4978433;28;20413;-88
2022/12/23 11:49:26;;;;;;;1.53;1.43;;;11.10;97.30;;;;;;4975401;28;20489;-88
2022/12/23 11:52:03;;;;;;;1.00;0.90;;;11.10;97.30;;;;;;4974467;28;20421;-88
2022/12/23 11:54:30;;;;;;;1.57;1.47;;;11.20;97.30;;;;;;4986909;28;20432;-88
2022/12/23 11:56:59;;;;;;;1.10;1.00;;;11.20;97.30;;;;;;4993077;28;20462;-88
2022/12/23 11:59:38;;;;;;;1.53;1.43;;;11.20;97.30;;;;;;4993302;28;20416;-88
2022/12/23 12:02:38;;;;;;;0.90;0.80;;;11.20;97.30;;;;;;4981299;28;20460;-88
2022/12/23 12:05:20;;;;;;;1.73;1.73;;;11.20;97.30;;;;;;4976725;28;20452;-88
2022/12/23 12:07:46;;;;;;;1.00;0.90;;;11.20;97.30;;;;;;4990483;28;20822;-89
2022/12/23 12:10:30;;;;;;;1.10;1.00;;;11.20;97.30;;;;;;4987039;28;20429;-89
2022/12/23 12:13:01;;;;;;;2.30;1.33;;;11.10;97.30;;;;;;4978254;28;20428;-88
2022/12/23 12:15:59;;;;;;;0.90;0.80;;;11.10;97.30;;;;;;4974303;28;20453;-88
2022/12/23 12:18:27;;;;;;;1.27;1.17;;;11.10;97.30;;;;;;4986294;28;20943;-89
2022/12/23 12:20:59;;;;;;;1.07;0.97;;;11.00;97.30;;;;;;4983164;28;20515;-89
2022/12/23 12:23:40;;;;;;;1.53;1.43;;;11.00;97.30;;;;;;4989784;28;20460;-88
2022/12/23 12:26:16;;;;;;;1.37;1.27;;;11.00;97.30;;;;;;4987966;28;21011;-88
2022/12/23 12:28:50;;;;;;;1.23;1.13;;;11.00;97.30;;;;;;4986915;28;20467;-88
2022/12/23 12:31:34;;;;;;;2.20;1.03;;;11.00;97.30;;;;;;4979033;28;20425;-88
2022/12/23 12:34:32;;;;;;;0.90;0.80;;;11.00;97.30;;;;;;4980642;28;20492;-89
2022/12/23 12:37:20;;;;;;;2.00;1.47;;;11.00;97.30;;;;;;4985111;28;20518;-89
2022/12/23 12:40:04;;;;;;;1.27;1.27;;;11.00;97.30;;;;;;4978141;28;20974;-88
2022/12/23 12:42:40;;;;;;;0.90;0.80;;;11.00;97.30;;;;;;4992216;28;20930;-88
2022/12/23 12:45:15;;;;;;;0.90;0.80;;;11.00;97.30;;;;;;4977134;28;20986;-89
2022/12/23 12:47:49;;;;;;;1.20;1.10;;;11.00;97.30;;;;;;4992446;28;20428;-89
2022/12/23 12:50:22;;;;;;;1.80;1.30;;;11.00;97.30;;;;;;4982586;28;21003;-89
2022/12/23 12:52:51;;;;;;;2.43;1.30;;;10.90;97.30;;;;;;4991438;28;20409;-88
2022/12/23 12:55:25;;;;;;;2.30;1.20;;;10.90;97.30;;;;;;4984549;28;20993;-89
2022/12/23 12:57:50;;;;;;;1.27;1.23;;;10.90;97.30;;;;;;5003540;28;20409;-88
2022/12/23 13:00:19;;;;;;;2.60;1.93;;;10.90;97.30;;;;;;5007280;28;20420;-88
2022/12/23 13:03:11;;;;;;;1.20;1.10;;;10.80;97.30;;;;;;4979496;28;20207;-89
2022/12/23 13:06:08;;;;;;;2.20;2.00;;;10.70;97.30;;;;;;4992538;28;20443;-89
2022/12/23 13:09:05;;;;;;;1.43;1.10;;;10.60;97.30;;;;;;4977426;28;20491;-89
2022/12/23 13:12:00;;;;;;;3.57;1.97;;;10.40;97.30;;;;;;4985297;28;20424;-89
2022/12/23 13:14:47;;;;;;;2.60;1.60;;;10.30;97.30;;;;;;4986384;28;20423;-89
2022/12/23 13:17:23;;;;;;;3.30;2.23;;;10.30;97.30;;;;;;4991030;28;20459;-88
2022/12/23 13:20:30;;;;;;;1.50;1.40;;;10.20;97.30;;;;;;4980704;28;20424;-89
2022/12/23 13:23:05;;;;;;;1.20;1.10;;;10.20;97.30;;;;;;5017975;23;20499;-84
2022/12/23 13:25:42;;;;;;;1.80;1.70;;;10.10;97.30;;;;;;4985091;28;20440;-83
2022/12/23 13:28:43;;;;;;;1.23;1.13;;;10.10;97.30;;;;;;4985145;28;20463;-83
2022/12/23 13:34:25;;;;;;;1.23;1.13;;;10.00;97.30;;;;;;5020378;28;20483;-83
2022/12/23 13:41:14;;;;;;;1.90;1.80;;;10.00;97.30;;;;;;4864004;29;20430;-83
2022/12/23 13:44:02;;;;;;;1.17;1.07;;;10.00;97.30;;;;;;4831045;29;20455;-82
2022/12/23 13:46:46;;;;;;;1.13;1.07;;;9.90;97.30;;;;;;4831611;29;20446;-83
2022/12/23 13:49:36;;;;;;;1.00;0.90;;;9.90;97.30;;;;;;4918368;29;20470;-84
2022/12/23 13:52:10;;;;;;;2.30;1.13;;;9.90;97.30;;;;;;4970878;28;20501;-82
2022/12/23 13:54:50;;;;;;;1.57;1.47;;;9.90;97.30;;;;;;4983271;28;20842;-82